createdAt,value
2018-04-14T00:00:16.328Z,66.50
2018-04-14T00:02:44.752Z,66.50
2018-04-14T00:05:13.117Z,67.10
2018-04-14T00:07:42.267Z,66.70
2018-04-14T00:10:10.676Z,66.60
2018-04-14T00:12:39.821Z,66.00
2018-04-14T00:15:08.867Z,66.00
2018-04-14T00:17:38.054Z,66.00
2018-04-14T00:20:06.424Z,66.00
2018-04-14T00:22:34.815Z,66.50
2018-04-14T00:25:03.956Z,66.40
2018-04-14T00:27:32.357Z,66.20
2018-04-14T00:30:00.724Z,66.70
2018-04-14T00:32:29.319Z,66.90
2018-04-14T00:34:57.717Z,67.50
2018-04-14T00:37:26.092Z,68.20
2018-04-14T00:39:54.502Z,67.90
2018-04-14T00:42:22.910Z,68.20
2018-04-14T00:44:51.305Z,69.10
2018-04-14T00:47:19.688Z,69.50
2018-04-14T00:49:48.266Z,69.90
2018-04-14T00:52:16.645Z,69.70
2018-04-14T00:54:45.025Z,70.80
2018-04-14T00:57:13.452Z,69.60
2018-04-14T00:59:42.603Z,69.10
2018-04-14T01:02:11.012Z,69.10
2018-04-14T01:04:39.385Z,70.00
2018-04-14T01:07:07.769Z,69.50
2018-04-14T01:09:36.193Z,69.20
2018-04-14T01:12:04.573Z,69.30
2018-04-14T01:14:33.004Z,68.90
2018-04-14T01:17:01.387Z,68.20
2018-04-14T01:19:29.832Z,68.00
2018-04-14T01:21:58.684Z,67.70
2018-04-14T01:24:27.115Z,67.40
2018-04-14T01:26:55.518Z,67.70
2018-04-14T01:29:24.661Z,68.00
2018-04-14T01:31:53.065Z,68.50
2018-04-14T01:34:21.463Z,69.40
2018-04-14T01:36:49.880Z,69.60
2018-04-14T01:39:18.253Z,69.80
2018-04-14T01:41:46.658Z,70.00
2018-04-14T01:44:15.063Z,70.00
2018-04-14T01:46:43.444Z,70.40
2018-04-14T01:49:11.842Z,70.80
2018-04-14T01:51:40.221Z,71.40
2018-04-14T01:54:08.633Z,71.40
2018-04-14T01:56:37.008Z,72.50
2018-04-14T01:59:05.382Z,72.00
2018-04-14T02:01:33.785Z,71.90
2018-04-14T02:04:02.165Z,71.70
2018-04-14T02:06:30.574Z,72.20
2018-04-14T02:08:58.971Z,72.20
2018-04-14T02:11:27.389Z,72.00
2018-04-14T02:13:55.773Z,71.60
2018-04-14T02:16:24.152Z,71.70
2018-04-14T02:18:52.566Z,72.00
2018-04-14T02:21:20.940Z,72.30
2018-04-14T02:23:49.336Z,72.50
2018-04-14T02:26:17.712Z,72.40
2018-04-14T02:28:46.495Z,72.50
2018-04-14T02:31:14.885Z,72.20
2018-04-14T02:33:43.272Z,72.30
2018-04-14T02:36:12.449Z,72.60
2018-04-14T02:38:40.829Z,72.60
2018-04-14T02:41:09.233Z,72.50
2018-04-14T02:43:38.384Z,72.70
2018-04-14T02:46:06.866Z,72.50
2018-04-14T02:48:35.244Z,72.30
2018-04-14T02:51:03.629Z,72.20
2018-04-14T02:53:32.031Z,71.60
2018-04-14T02:56:00.401Z,72.00
2018-04-14T02:58:28.863Z,72.00
2018-04-14T03:00:57.294Z,71.90
2018-04-14T03:03:26.568Z,71.20
2018-04-14T03:05:55.014Z,71.20
2018-04-14T03:08:23.382Z,71.80
2018-04-14T03:10:51.780Z,71.10
2018-04-14T03:13:20.161Z,71.10
2018-04-14T03:15:48.562Z,71.50
2018-04-14T03:18:16.937Z,71.50
2018-04-14T03:20:45.365Z,71.80
2018-04-14T03:23:13.736Z,71.70
2018-04-14T03:25:42.125Z,71.80
2018-04-14T03:28:10.528Z,72.00
2018-04-14T03:30:38.908Z,71.70
2018-04-14T03:33:07.309Z,71.90
2018-04-14T03:35:35.689Z,71.90
2018-04-14T03:38:04.342Z,71.90
2018-04-14T03:40:32.724Z,71.80
2018-04-14T03:43:01.116Z,71.80
2018-04-14T03:45:29.517Z,71.40
2018-04-14T03:47:58.673Z,71.10
2018-04-14T03:50:27.069Z,71.10
2018-04-14T03:52:55.444Z,70.90
2018-04-14T03:55:24.220Z,71.40
2018-04-14T03:57:52.594Z,71.30
2018-04-14T04:00:20.988Z,71.30
2018-04-14T04:02:49.862Z,71.30
2018-04-14T04:05:18.241Z,71.20
2018-04-14T04:07:46.640Z,71.20
2018-04-14T04:10:15.024Z,71.50
2018-04-14T04:12:43.633Z,71.70
2018-04-14T04:15:12.772Z,72.00
2018-04-14T04:17:41.151Z,71.90
2018-04-14T04:23:56.493Z,71.00
2018-04-14T04:26:26.311Z,70.90
2018-04-14T04:28:56.131Z,70.60
2018-04-14T04:31:25.811Z,70.80
2018-04-14T04:33:55.230Z,70.80
2018-04-14T04:36:25.706Z,70.80
2018-04-14T04:38:54.807Z,71.10
2018-04-14T04:41:23.741Z,71.00
2018-04-14T04:43:52.735Z,70.90
2018-04-14T04:46:21.731Z,70.70
2018-04-14T04:48:50.649Z,70.60
2018-04-14T04:51:19.795Z,71.30
2018-04-14T04:53:48.569Z,71.20
2018-04-14T04:56:16.945Z,71.10
2018-04-14T04:58:45.340Z,71.30
2018-04-14T05:01:13.744Z,71.40
2018-04-14T05:03:42.123Z,71.70
2018-04-14T05:06:11.288Z,72.40
2018-04-14T05:08:39.665Z,71.90
2018-04-14T05:11:08.238Z,71.80
2018-04-14T05:13:36.625Z,71.50
2018-04-14T05:16:05.001Z,71.20
2018-04-14T05:18:33.437Z,70.70
2018-04-14T05:21:02.635Z,70.70
2018-04-14T05:23:31.013Z,70.70
2018-04-14T05:26:00.163Z,70.50
2018-04-14T05:28:28.549Z,70.40
2018-04-14T05:30:56.952Z,70.10
2018-04-14T05:33:26.121Z,70.30
2018-04-14T05:35:54.514Z,70.30
2018-04-14T05:38:22.893Z,70.20
2018-04-14T05:40:51.309Z,70.00
2018-04-14T05:43:19.689Z,69.70
2018-04-14T05:45:48.102Z,70.00
2018-04-14T05:48:16.521Z,69.00
2018-04-14T05:50:45.676Z,69.30
2018-04-14T05:53:14.072Z,69.10
2018-04-14T05:55:42.445Z,69.30
2018-04-14T05:58:11.024Z,69.60
2018-04-14T06:00:39.425Z,69.10
2018-04-14T06:03:07.798Z,68.80
2018-04-14T06:05:36.272Z,68.90
2018-04-14T06:08:04.644Z,68.60
2018-04-14T06:10:33.984Z,68.80
2018-04-14T06:13:03.125Z,67.80
2018-04-14T06:15:31.737Z,67.80
2018-04-14T06:18:00.118Z,65.80
2018-04-14T06:20:28.501Z,65.40
2018-04-14T06:22:56.909Z,65.30
2018-04-14T06:25:25.329Z,65.00
2018-04-14T06:27:53.738Z,64.80
2018-04-14T06:30:22.160Z,64.50
2018-04-14T06:32:50.697Z,63.40
2018-04-14T06:35:19.101Z,62.70
2018-04-14T06:37:48.261Z,61.80
2018-04-14T06:40:26.445Z,61.70
2018-04-14T06:42:55.803Z,61.50
2018-04-14T06:45:24.361Z,60.60
2018-04-14T06:47:56.036Z,59.90
2018-04-14T06:50:25.397Z,58.30
2018-04-14T06:52:53.806Z,58.30
2018-04-14T06:55:22.967Z,59.00
2018-04-14T06:57:51.381Z,59.00
2018-04-14T07:00:20.671Z,57.80
2018-04-14T07:02:49.108Z,57.80
2018-04-14T07:05:17.512Z,57.30
2018-04-14T07:07:46.101Z,56.50
2018-04-14T07:10:14.515Z,54.60
2018-04-14T07:12:43.676Z,53.10
2018-04-14T07:15:12.297Z,53.10
2018-04-14T07:17:41.451Z,52.90
2018-04-14T07:20:09.853Z,52.90
2018-04-14T07:22:38.232Z,52.00
2018-04-14T07:25:06.878Z,52.50
2018-04-14T07:27:35.253Z,50.00
2018-04-14T07:30:03.718Z,50.50
2018-04-14T07:32:32.116Z,50.40
2018-04-14T07:35:00.499Z,50.30
2018-04-14T07:37:28.897Z,50.10
2018-04-14T07:39:57.285Z,49.80
2018-04-14T07:42:26.056Z,47.90
2018-04-14T07:44:55.094Z,47.00
2018-04-14T07:47:23.488Z,46.10
2018-04-14T07:49:52.661Z,46.60
2018-04-14T07:52:21.808Z,46.80
2018-04-14T07:54:50.221Z,46.80
2018-04-14T07:57:18.608Z,45.40
2018-04-14T07:59:48.222Z,45.70
2018-04-14T08:02:17.397Z,45.60
2018-04-14T08:04:45.796Z,45.60
2018-04-14T08:07:15.015Z,43.30
2018-04-14T08:09:43.421Z,43.20
2018-04-14T08:12:11.827Z,43.00
2018-04-14T08:14:40.213Z,43.10
2018-04-14T08:17:08.969Z,41.10
2018-04-14T08:19:37.353Z,40.60
2018-04-14T08:22:05.737Z,40.70
2018-04-14T08:24:40.392Z,39.20
2018-04-14T08:27:09.580Z,39.50
2018-04-14T08:29:38.029Z,39.30
2018-04-14T08:32:06.438Z,38.70
2018-04-14T08:34:34.886Z,38.40
2018-04-14T08:37:04.151Z,38.10
2018-04-14T08:39:34.364Z,39.50
2018-04-14T08:42:03.896Z,38.50
2018-04-14T08:44:32.284Z,38.50
2018-04-14T08:47:01.221Z,38.30
2018-04-14T08:49:30.384Z,37.40
2018-04-14T08:51:59.588Z,37.50
2018-04-14T08:54:28.026Z,36.50
2018-04-14T08:56:57.164Z,36.60
2018-04-14T08:59:26.521Z,34.90
2018-04-14T09:01:55.697Z,35.00
2018-04-14T09:04:24.078Z,35.30
2018-04-14T09:06:53.288Z,36.10
2018-04-14T09:09:23.756Z,35.30
2018-04-14T09:11:52.957Z,34.90
2018-04-14T09:14:22.302Z,34.90
2018-04-14T09:16:52.477Z,34.30
2018-04-14T09:19:20.877Z,34.30
2018-04-14T09:21:50.531Z,34.80
2018-04-14T09:24:19.630Z,34.10
2018-04-14T09:26:49.447Z,33.80
2018-04-14T09:29:17.906Z,33.40
2018-04-14T09:31:49.084Z,32.40
2018-04-14T09:34:17.511Z,32.40
2018-04-14T09:36:46.809Z,32.60
2018-04-14T09:39:15.241Z,32.40
2018-04-14T09:41:43.636Z,32.00
2018-04-14T09:44:12.058Z,32.00
2018-04-14T09:46:42.673Z,30.80
2018-04-14T09:49:11.179Z,30.80
2018-04-14T09:51:43.287Z,29.80
2018-04-14T09:54:11.852Z,29.80
2018-04-14T09:56:40.310Z,29.60
2018-04-14T09:59:09.117Z,30.20
2018-04-14T10:01:37.554Z,31.50
2018-04-14T10:04:06.260Z,29.80
2018-04-14T10:06:35.433Z,28.50
2018-04-14T10:09:03.860Z,28.50
2018-04-14T10:11:32.315Z,28.90
2018-04-14T10:14:01.464Z,27.70
2018-04-14T10:16:29.865Z,27.70
2018-04-14T10:18:58.270Z,28.30
2018-04-14T10:21:27.443Z,27.90
2018-04-14T10:23:55.845Z,27.90
2018-04-14T10:26:25.221Z,26.60
2018-04-14T10:28:54.009Z,26.60
2018-04-14T10:31:22.389Z,27.20
2018-04-14T10:33:51.141Z,25.80
2018-04-14T10:36:44.524Z,25.60
2018-04-14T10:39:41.081Z,24.50
2018-04-14T10:42:40.685Z,25.80
2018-04-14T10:48:33.535Z,25.80
2018-04-14T10:51:28.794Z,26.20
2018-04-14T10:57:21.013Z,24.90
2018-04-14T11:06:17.419Z,26.10
2018-04-14T11:21:15.643Z,25.50
2018-04-14T11:23:45.619Z,23.70
2018-04-14T11:26:13.993Z,24.50
2018-04-14T11:28:46.258Z,24.10
2018-04-14T11:31:14.669Z,24.40
2018-04-14T11:33:43.687Z,24.20
2018-04-14T11:36:12.089Z,24.40
2018-04-14T11:38:41.338Z,23.60
2018-04-14T11:41:09.742Z,23.60
2018-04-14T11:43:38.116Z,24.80
2018-04-14T11:46:06.828Z,24.80
2018-04-14T11:48:35.215Z,24.50
2018-04-14T11:51:04.977Z,23.80
2018-04-14T11:53:33.396Z,23.70
2018-04-14T11:56:02.557Z,23.30
2018-04-14T11:58:30.977Z,23.30
2018-04-14T12:01:00.158Z,23.90
2018-04-14T12:03:28.596Z,23.80
2018-04-14T12:05:56.973Z,24.80
2018-04-14T12:08:25.393Z,23.80
2018-04-14T12:10:53.831Z,24.10
2018-04-14T12:13:22.212Z,22.60
2018-04-14T12:15:51.574Z,20.20
2018-04-14T12:18:20.615Z,20.20
2018-04-14T12:20:49.369Z,21.40
2018-04-14T12:23:17.784Z,23.00
2018-04-14T12:25:46.180Z,24.00
2018-04-14T12:28:14.600Z,23.00
2018-04-14T12:30:44.688Z,23.40
2018-04-14T12:33:13.093Z,23.40
2018-04-14T12:35:43.056Z,21.90
2018-04-14T12:38:11.523Z,21.90
2018-04-14T12:40:40.463Z,22.20
2018-04-14T12:43:11.620Z,22.70
2018-04-14T12:45:40.069Z,22.60
2018-04-14T12:48:09.781Z,23.20
2018-04-14T12:50:39.869Z,23.50
2018-04-14T12:53:09.413Z,23.80
2018-04-14T12:55:38.205Z,23.80
2018-04-14T12:58:06.605Z,23.10
2018-04-14T13:00:36.060Z,21.70
2018-04-14T13:03:04.469Z,21.60
2018-04-14T13:05:32.849Z,21.80
2018-04-14T13:08:01.257Z,21.50
2018-04-14T13:10:29.640Z,21.70
2018-04-14T13:12:58.058Z,21.10
2018-04-14T13:15:26.534Z,21.80
2018-04-14T13:17:54.962Z,22.30
2018-04-14T13:20:24.137Z,21.90
2018-04-14T13:22:53.309Z,21.10
2018-04-14T13:25:22.326Z,21.00
2018-04-14T13:27:51.512Z,21.30
2018-04-14T13:30:19.945Z,21.30
2018-04-14T13:32:48.327Z,22.00
2018-04-14T13:35:16.762Z,21.50
2018-04-14T13:37:45.138Z,21.40
2018-04-14T13:40:13.518Z,21.30
2018-04-14T13:42:41.931Z,21.10
2018-04-14T13:45:10.328Z,20.30
2018-04-14T13:47:38.730Z,19.20
2018-04-14T13:50:08.729Z,18.30
2018-04-14T13:52:38.609Z,18.00
2018-04-14T13:55:07.757Z,18.90
2018-04-14T13:57:36.165Z,18.90
2018-04-14T14:00:05.218Z,19.70
2018-04-14T14:02:34.662Z,20.00
2018-04-14T14:05:03.697Z,21.00
2018-04-14T14:07:32.305Z,21.20
2018-04-14T14:10:07.598Z,21.70
2018-04-14T14:12:37.455Z,21.70
2018-04-14T14:15:05.901Z,21.80
2018-04-14T14:17:34.344Z,23.80
2018-04-14T14:20:03.237Z,23.10
2018-04-14T14:22:34.250Z,24.60
2018-04-14T14:25:02.689Z,24.60
2018-04-14T14:27:31.091Z,24.30
2018-04-14T14:29:59.490Z,25.00
2018-04-14T14:32:27.877Z,24.90
2018-04-14T14:34:57.406Z,24.30
2018-04-14T14:37:25.867Z,24.50
2018-04-14T14:39:54.312Z,25.00
2018-04-14T14:42:22.684Z,24.90
2018-04-14T14:44:51.082Z,25.80
2018-04-14T14:47:19.925Z,25.20
2018-04-14T14:49:50.771Z,24.70
2018-04-14T14:52:20.721Z,25.50
2018-04-14T14:54:49.308Z,25.50
2018-04-14T14:57:19.427Z,26.00
2018-04-14T14:59:47.826Z,24.90
2018-04-14T15:02:17.748Z,27.10
2018-04-14T15:04:47.226Z,27.10
2018-04-14T15:07:16.780Z,25.00
2018-04-14T15:09:46.233Z,24.70
2018-04-14T15:12:14.818Z,24.70
2018-04-14T15:14:43.247Z,25.40
2018-04-14T15:17:12.393Z,25.80
2018-04-14T15:19:40.812Z,25.70
2018-04-14T15:22:09.202Z,25.00
2018-04-14T15:24:38.404Z,26.00
2018-04-14T15:27:07.908Z,25.20
2018-04-14T15:29:36.584Z,25.20
2018-04-14T15:32:05.876Z,24.80
2018-04-14T15:34:34.266Z,24.70
2018-04-14T15:37:02.697Z,26.10
2018-04-14T15:39:31.081Z,25.90
2018-04-14T15:41:59.546Z,25.50
2018-04-14T15:44:27.920Z,25.10
2018-04-14T15:46:57.043Z,24.90
2018-04-14T15:49:25.462Z,25.50
2018-04-14T15:51:53.856Z,25.30
2018-04-14T15:54:22.467Z,26.30
2018-04-14T15:56:50.851Z,25.20
2018-04-14T15:59:19.267Z,25.80
2018-04-14T16:01:48.436Z,26.50
2018-04-14T16:04:19.960Z,26.40
2018-04-14T16:06:49.453Z,26.00
2018-04-14T16:09:17.929Z,26.60
2018-04-14T16:11:46.349Z,27.10
2018-04-14T16:14:15.120Z,27.20
2018-04-14T16:16:43.549Z,27.50
2018-04-14T16:19:12.875Z,26.80
2018-04-14T16:21:41.415Z,26.80
2018-04-14T16:24:09.868Z,26.80
2018-04-14T16:26:38.313Z,27.90
2018-04-14T16:29:07.747Z,27.80
2018-04-14T16:31:36.329Z,28.00
2018-04-14T16:34:05.062Z,28.10
2018-04-14T16:36:34.248Z,28.80
2018-04-14T16:39:03.825Z,30.00
2018-04-14T16:41:32.439Z,29.30
2018-04-14T16:44:01.186Z,29.60
2018-04-14T16:46:30.267Z,29.60
2018-04-14T16:48:58.793Z,30.10
2018-04-14T16:51:27.767Z,29.90
2018-04-14T16:53:56.332Z,31.10
2018-04-14T16:56:26.443Z,30.20
2018-04-14T16:58:54.947Z,30.40
2018-04-14T17:01:23.412Z,30.80
2018-04-14T17:03:51.963Z,31.60
2018-04-14T17:06:21.111Z,30.90
2018-04-14T17:08:49.541Z,31.30
2018-04-14T17:11:18.767Z,32.70
2018-04-14T17:13:47.524Z,32.60
2018-04-14T17:16:16.775Z,33.80
2018-04-14T17:18:45.161Z,33.80
2018-04-14T17:21:13.708Z,34.00
2018-04-14T17:23:42.913Z,34.00
2018-04-14T17:26:11.340Z,34.30
2018-04-14T17:28:39.749Z,34.60
2018-04-14T17:31:08.469Z,35.00
2018-04-14T17:33:36.899Z,35.20
2018-04-14T17:36:06.071Z,35.90
2018-04-14T17:38:34.544Z,35.90
2018-04-14T17:41:03.257Z,36.10
2018-04-14T17:43:32.030Z,36.50
2018-04-14T17:46:00.489Z,37.10
2018-04-14T17:48:29.281Z,37.10
2018-04-14T17:50:57.680Z,37.40
2018-04-14T17:53:26.197Z,37.70
2018-04-14T17:55:54.667Z,37.70
2018-04-14T17:58:23.915Z,38.60
2018-04-14T18:00:52.433Z,38.50
2018-04-14T18:03:21.939Z,38.70
2018-04-14T18:05:51.129Z,38.80
2018-04-14T18:08:19.517Z,38.80
2018-04-14T18:10:48.711Z,39.20
2018-04-14T18:13:17.923Z,39.70
2018-04-14T18:15:47.089Z,39.60
2018-04-14T18:18:15.505Z,39.50
2018-04-14T18:20:43.888Z,39.50
2018-04-14T18:23:12.305Z,39.70
2018-04-14T18:25:40.795Z,39.90
2018-04-14T18:28:09.673Z,39.90
2018-04-14T18:30:38.126Z,39.90
2018-04-14T18:33:10.791Z,40.00
2018-04-14T18:35:39.459Z,40.00
2018-04-14T18:38:07.998Z,40.50
2018-04-14T18:40:36.448Z,40.50
2018-04-14T18:43:04.829Z,40.00
2018-04-14T18:45:33.233Z,40.10
2018-04-14T18:48:13.403Z,40.20
2018-04-14T18:50:43.226Z,40.00
2018-04-14T18:53:11.634Z,40.00
2018-04-14T18:55:40.798Z,41.80
2018-04-14T18:58:09.202Z,41.70
2018-04-14T19:00:38.427Z,42.10
2018-04-14T19:03:07.680Z,42.20
2018-04-14T19:05:36.087Z,42.00
2018-04-14T19:08:06.740Z,41.70
2018-04-14T19:10:35.137Z,41.70
2018-04-14T19:13:03.527Z,41.60
2018-04-14T19:15:31.996Z,41.60
2018-04-14T19:18:00.845Z,41.90
2018-04-14T19:20:29.300Z,42.40
2018-04-14T19:22:58.317Z,42.90
2018-04-14T19:25:27.109Z,43.10
2018-04-14T19:27:55.505Z,43.50
2018-04-14T19:30:23.977Z,43.50
2018-04-14T19:32:53.139Z,43.80
2018-04-14T19:35:21.533Z,43.80
2018-04-14T19:37:50.819Z,44.50
2018-04-14T19:40:19.886Z,44.60
2018-04-14T19:42:48.526Z,44.60
2018-04-14T19:45:16.941Z,44.70
2018-04-14T19:47:45.338Z,44.90
2018-04-14T19:50:13.757Z,45.30
2018-04-14T19:52:42.970Z,46.10
2018-04-14T19:55:11.381Z,46.00
2018-04-14T19:57:39.769Z,45.90
2018-04-14T20:00:08.434Z,46.00
2018-04-14T20:02:37.023Z,46.00
2018-04-14T20:05:05.917Z,46.00
2018-04-14T20:07:34.354Z,45.90
2018-04-14T20:10:03.539Z,45.60
2018-04-14T20:12:32.862Z,45.70
2018-04-14T20:15:01.265Z,45.70
2018-04-14T20:17:29.772Z,46.20
2018-04-14T20:19:59.180Z,45.80
2018-04-14T20:22:27.561Z,45.70
2018-04-14T20:24:57.613Z,45.70
2018-04-14T20:27:26.092Z,45.60
2018-04-14T20:29:54.603Z,45.50
2018-04-14T20:32:23.211Z,45.90
2018-04-14T20:34:51.897Z,46.20
2018-04-14T20:37:20.325Z,46.10
2018-04-14T20:39:49.631Z,45.70
2018-04-14T20:42:18.460Z,45.40
2018-04-14T20:44:47.637Z,45.60
2018-04-14T20:47:16.208Z,46.00
2018-04-14T20:49:45.023Z,45.90
2018-04-14T20:52:13.721Z,46.50
2018-04-14T20:54:42.503Z,46.80
2018-04-14T20:57:11.337Z,46.80
2018-04-14T20:59:39.785Z,46.40
2018-04-14T21:02:08.169Z,46.10
2018-04-14T21:04:37.385Z,46.20
2018-04-14T21:07:06.324Z,46.20
2018-04-14T21:09:35.261Z,46.40
2018-04-14T21:12:05.064Z,46.70
2018-04-14T21:14:33.956Z,47.20
2018-04-14T21:17:08.530Z,47.10
2018-04-14T21:22:49.466Z,46.60
2018-04-14T21:28:34.119Z,47.20
2018-04-14T21:31:03.738Z,47.10
2018-04-14T21:33:32.222Z,47.50
2018-04-14T21:36:06.338Z,47.10
2018-04-14T21:38:38.402Z,47.20
2018-04-14T21:41:24.444Z,47.10
2018-04-14T21:50:16.021Z,48.10
2018-04-14T21:56:19.643Z,47.60
2018-04-14T21:58:49.692Z,47.70
2018-04-14T22:01:29.063Z,48.10
2018-04-14T22:04:34.417Z,47.20
2018-04-14T22:07:13.364Z,47.20
2018-04-14T22:13:04.434Z,46.80
2018-04-14T22:19:05.176Z,46.20
2018-04-14T22:28:18.522Z,45.80
2018-04-14T23:04:50.170Z,48.40
